Time;durP1;ratioP1;P1;durP2;ratioP2;P2;SDS_P1;SDS_P2;PMS_P1;PMS_P2;Temp;Humidity;BMP_temperature;BMP_pressure;BME280_temperature;BME280_humidity;BME280_pressure;Samples;Min_cycle;Max_cycle;Signal;HPM_P1;HPM_P2
2022/05/01 00:00:57;;;;;;;24.73;12.88;;;;;;;3.33;84.06;94291.44;5048968;28;20052;-50
2022/05/01 00:03:36;;;;;;;22.67;12.17;;;;;;;3.35;84.22;94282.94;5050388;28;20039;-51
2022/05/01 00:06:07;;;;;;;20.65;11.07;;;;;;;3.34;84.04;94284.06;5050289;28;20037;-49
2022/05/01 00:08:36;;;;;;;21.45;11.05;;;;;;;3.35;83.47;94285.66;5050383;28;20071;-55
2022/05/01 00:11:03;;;;;;;20.65;10.60;;;;;;;3.36;83.63;94276.34;5049472;28;20078;-49
2022/05/01 00:13:39;;;;;;;21.02;10.90;;;;;;;3.34;83.00;94274.03;5050286;28;20051;-47
2022/05/01 00:16:06;;;;;;;22.27;10.90;;;;;;;3.31;83.21;94282.09;5050060;28;20063;-46
2022/05/01 00:18:33;;;;;;;21.10;11.13;;;;;;;3.24;83.68;94277.31;5050116;28;20045;-48
2022/05/01 00:21:00;;;;;;;21.23;10.95;;;;;;;3.21;83.85;94278.03;5049595;28;20049;-50
2022/05/01 00:23:27;;;;;;;19.73;10.50;;;;;;;3.23;83.56;94283.09;5049757;28;20053;-53
2022/05/01 00:25:54;;;;;;;22.25;11.57;;;;;;;3.20;83.53;94284.63;5048456;28;20037;-49
2022/05/01 00:28:21;;;;;;;19.57;10.83;;;;;;;3.18;83.69;94271.41;5049983;28;20051;-55
2022/05/01 00:30:48;;;;;;;32.25;16.13;;;;;;;3.20;84.06;94279.19;5049780;28;20433;-46
2022/05/01 00:38:45;;;;;;;23.40;12.32;;;;;;;3.07;83.59;94280.47;5049630;28;20055;-52
2022/05/01 00:41:12;;;;;;;22.30;13.13;;;;;;;3.09;83.74;94278.97;5049746;28;20052;-57
2022/05/01 00:44:01;;;;;;;22.48;11.98;;;;;;;3.13;84.06;94277.09;5049865;28;20075;-48
2022/05/01 00:46:28;;;;;;;22.25;11.25;;;;;;;3.10;84.04;94283.25;5068716;28;20036;-47
2022/05/01 00:48:55;;;;;;;19.88;10.75;;;;;;;3.06;83.72;94274.28;5067960;28;20405;-52
2022/05/01 00:51:22;;;;;;;20.17;10.68;;;;;;;2.98;83.62;94272.59;5055778;28;20043;-46
2022/05/01 00:53:50;;;;;;;21.07;10.80;;;;;;;3.01;83.79;94274.56;5049319;28;20536;-47
2022/05/01 00:56:17;;;;;;;23.02;10.88;;;;;;;3.00;83.55;94279.19;5049505;28;20045;-48
2022/05/01 00:58:47;;;;;;;20.80;11.20;;;;;;;2.96;83.43;94281.06;5049213;28;20056;-46
2022/05/01 01:01:14;;;;;;;22.77;11.38;;;;;;;2.96;83.64;94274.88;5048173;28;20037;-56
2022/05/01 01:03:41;;;;;;;22.33;12.00;;;;;;;2.93;83.95;94281.00;5049868;28;20063;-51
2022/05/01 01:06:08;;;;;;;20.73;11.00;;;;;;;2.91;84.24;94275.13;5046687;28;20090;-48
2022/05/01 01:08:35;;;;;;;20.25;10.88;;;;;;;2.87;84.25;94271.56;5049241;28;20044;-53
2022/05/01 01:11:02;;;;;;;19.08;10.95;;;;;;;2.91;84.29;94273.22;5049163;28;20053;-47
2022/05/01 01:13:29;;;;;;;23.63;11.70;;;;;;;2.92;84.34;94280.22;5047446;28;20040;-48
2022/05/01 01:15:57;;;;;;;25.27;13.52;;;;;;;2.91;84.41;94281.34;5040543;28;20046;-45
2022/05/01 01:18:25;;;;;;;23.93;12.03;;;;;;;2.93;84.57;94275.56;5041799;28;20045;-45
2022/05/01 01:20:53;;;;;;;22.90;11.85;;;;;;;2.92;84.59;94274.78;5030138;28;20037;-51
2022/05/01 01:23:20;;;;;;;23.77;11.48;;;;;;;2.92;84.04;94274.00;5029371;28;20051;-47
2022/05/01 01:25:47;;;;;;;21.13;10.90;;;;;;;2.88;83.85;94270.41;5029162;28;20053;-45
2022/05/01 01:28:14;;;;;;;22.10;10.95;;;;;;;2.82;83.96;94271.84;5032537;28;20044;-57
2022/05/01 01:33:30;;;;;;;17.23;10.02;;;;;;;2.63;83.54;94264.50;5048149;28;20225;-46
2022/05/01 01:36:03;;;;;;;19.45;10.20;;;;;;;2.71;83.20;94269.72;5048953;28;20087;-46
2022/05/01 01:38:30;;;;;;;19.58;10.27;;;;;;;2.64;83.51;94266.88;5049210;28;20056;-46
2022/05/01 01:40:59;;;;;;;20.45;10.68;;;;;;;2.59;83.46;94261.72;5048834;28;20083;-46
2022/05/01 01:43:28;;;;;;;21.17;10.80;;;;;;;2.59;83.77;94259.78;5048945;28;20048;-51
2022/05/01 01:45:56;;;;;;;22.48;11.40;;;;;;;2.58;84.06;94260.94;5048782;28;20043;-46
2022/05/01 01:48:23;;;;;;;20.95;11.18;;;;;;;2.54;84.27;94257.38;5047371;28;20048;-46
2022/05/01 01:50:58;;;;;;;22.80;11.73;;;;;;;2.54;84.47;94253.91;5048905;28;20061;-51
2022/05/01 01:53:25;;;;;;;21.90;11.57;;;;;;;2.55;83.98;94252.75;5048894;28;20040;-47
2022/05/01 01:55:52;;;;;;;21.97;11.30;;;;;;;2.52;84.36;94250.75;5048888;28;20055;-46
2022/05/01 01:58:19;;;;;;;22.83;11.38;;;;;;;2.54;84.22;94251.19;5049025;28;20036;-45
2022/05/01 02:00:46;;;;;;;23.25;11.93;;;;;;;2.53;84.12;94242.25;5048766;28;20075;-46
2022/05/01 02:03:13;;;;;;;22.05;11.25;;;;;;;2.57;84.21;94236.91;5049118;28;20041;-50
2022/05/01 02:05:40;;;;;;;21.33;11.07;;;;;;;2.62;84.12;94233.94;5049070;28;20049;-47
2022/05/01 02:08:07;;;;;;;21.20;11.13;;;;;;;2.66;84.29;94242.13;5048658;28;20041;-49
2022/05/01 02:10:35;;;;;;;20.77;10.60;;;;;;;2.67;84.01;94244.47;5048849;28;20053;-45
2022/05/01 02:13:03;;;;;;;22.85;11.40;;;;;;;2.73;84.72;94237.63;5048703;28;20051;-47
2022/05/01 02:15:30;;;;;;;19.98;10.50;;;;;;;2.64;83.95;94236.28;5047511;28;20192;-50
2022/05/01 02:18:00;;;;;;;21.02;10.75;;;;;;;2.64;83.32;94223.53;5050772;28;20053;-48
2022/05/01 02:21:34;;;;;;;20.23;10.43;;;;;;;2.61;83.65;94226.94;5050724;28;20482;-48
2022/05/01 02:23:20;;;;;;;22.02;11.07;;;;;;;2.75;83.46;94226.44;5051685;28;20810;-49
2022/05/01 02:25:48;;;;;;;23.05;11.10;;;;;;;2.83;83.03;94228.13;5052065;28;20053;-54
2022/05/01 02:28:15;;;;;;;21.38;11.20;;;;;;;2.90;82.94;94222.09;5052555;28;20402;-52
2022/05/01 02:30:42;;;;;;;20.27;10.75;;;;;;;2.98;83.29;94219.13;5050756;28;20051;-53
2022/05/01 02:33:10;;;;;;;21.27;11.37;;;;;;;3.10;82.82;94220.09;5051461;28;21653;-52
2022/05/01 02:35:38;;;;;;;21.25;11.38;;;;;;;3.13;82.96;94222.88;5050655;28;20048;-48
2022/05/01 02:38:06;;;;;;;22.38;11.57;;;;;;;3.12;82.79;94218.63;5052068;28;20048;-49
2022/05/01 02:40:33;;;;;;;40.15;12.98;;;;;;;2.65;85.62;94214.25;5050564;28;20040;-46
2022/05/01 02:43:00;;;;;;;34.05;13.45;;;;;;;2.13;88.30;94213.59;5051713;28;20040;-48
2022/05/01 02:45:28;;;;;;;33.03;14.30;;;;;;;1.99;89.68;94216.78;5051732;28;20037;-49
2022/05/01 02:47:55;;;;;;;53.63;14.77;;;;;;;2.10;90.22;94219.69;5051618;28;20074;-52
2022/05/01 02:50:22;;;;;;;73.15;17.00;;;;;;;2.50;90.34;94220.53;5051627;28;20033;-49
2022/05/01 02:52:54;;;;;;;33.47;13.68;;;;;;;2.71;89.16;94210.09;5051598;28;20048;-47
2022/05/01 02:55:21;;;;;;;31.35;13.60;;;;;;;2.75;88.45;94208.25;5051598;28;20766;-56
2022/05/01 02:57:48;;;;;;;35.63;14.00;;;;;;;2.78;88.13;94209.47;5051437;28;20490;-50
2022/05/01 03:00:18;;;;;;;63.10;15.40;;;;;;;2.82;88.42;94213.03;5050647;28;20512;-48
2022/05/01 03:02:48;;;;;;;32.38;13.23;;;;;;;2.93;87.93;94210.50;5051157;28;20052;-51
2022/05/01 03:05:16;;;;;;;53.15;14.20;;;;;;;2.98;88.60;94205.56;5051797;28;20041;-48
2022/05/01 03:07:43;;;;;;;55.90;14.98;;;;;;;3.09;88.78;94202.28;5051354;28;20075;-53
2022/05/01 03:10:10;;;;;;;36.93;13.40;;;;;;;3.03;88.81;94199.06;5050615;28;21513;-50
2022/05/01 03:12:37;;;;;;;49.55;15.07;;;;;;;2.95;88.89;94205.50;5051518;28;20146;-50
2022/05/01 03:15:08;;;;;;;37.85;14.38;;;;;;;2.89;89.39;94199.59;5050850;28;20057;-51
2022/05/01 03:23:06;;;;;;;104.63;15.20;;;;;;;2.50;91.03;94198.88;5050960;28;20037;-53
2022/05/01 03:25:33;;;;;;;62.72;14.80;;;;;;;2.51;91.98;94192.28;5051133;28;20090;-48
2022/05/01 03:28:00;;;;;;;59.13;16.85;;;;;;;2.66;92.58;94191.44;5050277;28;20049;-49
2022/05/01 03:30:28;;;;;;;66.38;17.38;;;;;;;2.73;91.89;94193.47;5050368;28;20094;-52
2022/05/01 03:32:54;;;;;;;49.00;15.52;;;;;;;2.84;91.76;94188.25;5049552;28;20105;-51
2022/05/01 03:35:21;;;;;;;143.67;16.70;;;;;;;2.86;90.77;94199.53;5051073;28;20041;-48
2022/05/01 03:37:48;;;;;;;88.32;17.27;;;;;;;2.90;90.61;94197.69;5049302;28;20049;-47
2022/05/01 03:40:15;;;;;;;58.50;14.90;;;;;;;2.94;90.34;94201.25;5051196;28;20401;-50
2022/05/01 03:42:43;;;;;;;64.65;15.45;;;;;;;3.06;90.55;94197.56;5050760;28;20041;-47
2022/05/01 03:45:10;;;;;;;91.38;16.00;;;;;;;3.04;90.12;94192.50;5050144;28;20832;-53
2022/05/01 03:47:37;;;;;;;51.27;14.40;;;;;;;3.08;89.86;94196.06;5050697;28;20045;-50
2022/05/01 03:50:05;;;;;;;59.35;14.35;;;;;;;3.05;90.20;94188.66;5050121;28;20405;-47
2022/05/01 03:52:33;;;;;;;49.20;14.43;;;;;;;3.02;90.83;94188.56;5050965;28;20049;-51
2022/05/01 03:55:00;;;;;;;66.50;14.43;;;;;;;2.97;91.11;94195.09;5050307;28;20063;-47
2022/05/01 03:57:34;;;;;;;94.65;16.10;;;;;;;3.02;90.91;94183.16;5050808;28;20055;-46
2022/05/01 04:00:01;;;;;;;108.77;16.43;;;;;;;3.07;90.89;94185.56;5050317;28;20053;-48
2022/05/01 04:02:27;;;;;;;75.15;15.73;;;;;;;3.13;90.86;94181.41;5050598;28;20051;-46
2022/05/01 04:04:54;;;;;;;121.22;15.60;;;;;;;2.78;90.59;94187.78;5050149;28;20117;-49
2022/05/01 04:07:21;;;;;;;159.90;16.58;;;;;;;2.76;91.66;94187.38;5050679;28;20049;-46
2022/05/01 04:09:48;;;;;;;53.95;15.05;;;;;;;2.54;92.18;94194.28;5048617;28;20052;-48
2022/05/01 04:12:16;;;;;;;44.07;14.33;;;;;;;2.67;92.88;94192.97;5050493;28;20049;-47
2022/05/01 04:14:43;;;;;;;97.85;15.38;;;;;;;2.80;92.55;94190.91;5050074;28;20049;-46
2022/05/01 04:17:10;;;;;;;67.18;14.40;;;;;;;2.89;91.80;94193.41;5049456;28;20780;-50
2022/05/01 04:19:36;;;;;;;58.50;13.55;;;;;;;2.89;91.45;94188.75;5048570;28;20051;-48
2022/05/01 04:22:04;;;;;;;51.00;14.18;;;;;;;2.77;91.75;94195.09;5048838;28;20059;-50
2022/05/01 04:24:31;;;;;;;47.53;15.20;;;;;;;2.90;91.82;94195.75;5050036;28;20052;-53
2022/05/01 04:26:57;;;;;;;112.50;18.05;;;;;;;2.94;91.42;94182.28;5049716;28;20055;-47
2022/05/01 04:29:36;;;;;;;94.20;14.82;;;;;;;2.92;90.81;94192.69;5048697;28;20045;-47
2022/05/01 04:32:05;;;;;;;102.10;15.73;;;;;;;2.77;91.25;94200.53;5048466;28;20059;-46
2022/05/01 04:34:35;;;;;;;67.57;14.57;;;;;;;2.89;91.51;94198.81;5049945;28;20045;-47
2022/05/01 04:37:02;;;;;;;56.90;14.27;;;;;;;2.86;91.25;94203.03;5049456;28;20520;-47
2022/05/01 04:39:28;;;;;;;96.82;14.15;;;;;;;2.78;91.59;94210.25;5031577;28;20041;-46
2022/05/01 04:41:55;;;;;;;86.68;14.50;;;;;;;2.56;91.73;94211.75;5029610;28;20111;-51
2022/05/01 04:44:22;;;;;;;91.25;34.35;;;;;;;2.68;91.92;94207.34;5029994;28;20059;-52
2022/05/01 04:46:50;;;;;;;72.55;17.45;;;;;;;2.77;92.23;94213.31;5028054;28;20495;-46
2022/05/01 04:49:20;;;;;;;49.00;12.43;;;;;;;2.54;91.37;94215.97;5029982;28;20044;-49
2022/05/01 04:51:47;;;;;;;103.90;13.30;;;;;;;2.37;91.89;94209.84;5029425;28;20055;-49
2022/05/01 04:54:14;;;;;;;34.90;11.50;;;;;;;2.43;91.36;94212.25;5030062;28;20509;-48
2022/05/01 04:59:26;;;;;;;69.38;13.13;;;;;;;2.63;92.24;94221.16;5028734;28;20351;-45
2022/05/01 05:01:54;;;;;;;100.07;14.20;;;;;;;2.88;92.10;94224.34;5029356;28;20053;-46
2022/05/01 05:04:21;;;;;;;84.70;13.90;;;;;;;2.99;92.22;94228.03;5028716;28;20056;-50
2022/05/01 05:06:52;;;;;;;70.63;13.40;;;;;;;2.93;91.48;94219.41;5027678;28;20053;-51
2022/05/01 05:12:07;;;;;;;87.65;13.65;;;;;;;2.88;92.95;94237.88;5069180;28;20044;-46
2022/05/01 05:14:33;;;;;;;67.40;13.03;;;;;;;2.71;93.13;94233.72;5069467;28;20041;-52
2022/05/01 05:17:01;;;;;;;78.72;13.75;;;;;;;2.77;93.93;94234.97;5067689;28;20408;-50
2022/05/01 05:19:27;;;;;;;80.35;14.48;;;;;;;3.11;93.73;94236.00;5069472;28;20041;-48
2022/05/01 05:21:55;;;;;;;60.83;13.15;;;;;;;3.06;93.18;94230.91;5069222;28;20053;-47
2022/05/01 05:24:23;;;;;;;54.92;13.43;;;;;;;3.37;92.25;94238.00;5067888;28;20440;-48
2022/05/01 05:26:50;;;;;;;62.60;13.40;;;;;;;3.52;91.25;94225.50;5067508;28;20060;-46
2022/05/01 05:29:17;;;;;;;43.85;12.68;;;;;;;3.69;90.85;94228.84;5057785;28;20040;-47
2022/05/01 05:31:43;;;;;;;28.13;12.43;;;;;;;3.94;89.73;94229.22;5048339;28;20171;-45
2022/05/01 05:34:10;;;;;;;39.15;11.60;;;;;;;4.12;87.18;94235.69;5049479;28;20041;-48
2022/05/01 05:36:37;;;;;;;23.73;11.52;;;;;;;4.48;86.73;94233.47;5049351;28;20045;-49
2022/05/01 05:39:04;;;;;;;38.90;11.97;;;;;;;4.08;86.54;94242.22;5048410;28;20049;-49
2022/05/01 05:41:31;;;;;;;50.05;11.80;;;;;;;3.96;86.63;94235.06;5049219;28;20053;-52
2022/05/01 05:43:57;;;;;;;52.40;11.98;;;;;;;3.84;87.74;94230.63;5048936;28;20051;-45
2022/05/01 05:46:27;;;;;;;33.40;11.98;;;;;;;4.42;86.45;94232.22;5049098;28;20072;-46
2022/05/01 05:48:54;;;;;;;24.92;10.70;;;;;;;4.48;84.71;94233.47;5048437;28;20063;-45
2022/05/01 05:51:21;;;;;;;40.10;11.17;;;;;;;4.72;83.58;94232.22;5049264;28;20041;-50
2022/05/01 05:53:53;;;;;;;28.17;10.80;;;;;;;5.31;82.75;94243.38;5050734;28;20127;-50
2022/05/01 05:56:20;;;;;;;61.15;12.25;;;;;;;5.64;80.63;94239.00;5051898;28;20048;-47
2022/05/01 05:58:47;;;;;;;37.88;11.00;;;;;;;6.12;78.78;94235.50;5052420;28;20053;-46
2022/05/01 06:01:14;;;;;;;26.40;10.18;;;;;;;6.65;76.78;94237.75;5052606;28;20690;-49
2022/05/01 06:03:42;;;;;;;24.10;10.47;;;;;;;6.73;75.46;94247.53;5052765;28;20049;-50
2022/05/01 06:06:09;;;;;;;30.70;11.38;;;;;;;6.03;77.08;94252.16;5052207;28;20883;-48
2022/05/01 06:08:37;;;;;;;40.60;11.18;;;;;;;6.24;77.00;94245.28;5052091;28;20118;-46
2022/05/01 06:11:05;;;;;;;38.17;12.00;;;;;;;6.01;77.30;94246.31;5052296;28;20045;-46
2022/05/01 06:13:32;;;;;;;46.72;11.90;;;;;;;5.81;78.54;94253.91;5034843;28;20049;-56
2022/05/01 06:15:59;;;;;;;27.57;11.53;;;;;;;5.97;78.76;94250.94;5051689;28;20071;-46
2022/05/01 06:18:26;;;;;;;26.20;10.63;;;;;;;6.78;74.90;94247.16;5052399;28;20045;-50
2022/05/01 06:20:53;;;;;;;22.00;11.15;;;;;;;6.95;75.38;94237.47;5051746;28;20417;-47
2022/05/01 06:23:25;;;;;;;20.90;10.65;;;;;;;7.96;71.93;94237.66;5051041;28;20067;-48
2022/05/01 06:25:52;;;;;;;19.80;11.13;;;;;;;7.65;71.99;94240.00;5051546;28;20063;-47
2022/05/01 06:28:19;;;;;;;20.43;10.73;;;;;;;9.12;68.36;94244.47;5051226;28;20041;-51
2022/05/01 06:30:49;;;;;;;16.48;10.18;;;;;;;9.13;67.64;94233.09;5051313;28;20110;-47
2022/05/01 06:33:18;;;;;;;22.33;11.60;;;;;;;7.63;70.92;94245.06;5052206;28;20041;-53
2022/05/01 06:35:51;;;;;;;17.60;10.38;;;;;;;7.50;73.39;94250.09;5051657;28;20102;-53
2022/05/01 06:38:18;;;;;;;19.10;10.48;;;;;;;7.60;72.59;94246.59;5052033;28;20045;-48
2022/05/01 06:40:46;;;;;;;20.40;11.40;;;;;;;7.35;73.27;94251.25;5051450;28;20041;-46
2022/05/01 06:43:14;;;;;;;22.42;10.85;;;;;;;6.51;75.72;94254.81;5052501;28;20040;-46
2022/05/01 06:45:41;;;;;;;19.77;11.82;;;;;;;5.88;78.95;94255.91;5050360;28;20599;-49
2022/05/01 06:48:10;;;;;;;22.58;12.10;;;;;;;5.87;79.92;94257.84;5051278;28;20064;-48
2022/05/01 06:50:37;;;;;;;21.85;12.05;;;;;;;6.23;78.61;94252.69;5051458;28;20060;-47
2022/05/01 06:53:05;;;;;;;21.13;11.63;;;;;;;6.29;78.26;94259.34;5051341;28;20067;-50
2022/05/01 06:55:32;;;;;;;21.60;11.43;;;;;;;6.85;77.34;94257.31;5051571;28;20041;-54
2022/05/01 06:58:00;;;;;;;20.23;11.00;;;;;;;7.32;75.78;94250.06;5049896;28;20041;-48
2022/05/01 07:00:26;;;;;;;19.27;11.52;;;;;;;8.27;72.59;94246.22;5051823;28;20048;-47
2022/05/01 07:02:54;;;;;;;20.70;12.13;;;;;;;9.22;69.71;94243.63;5050807;28;20051;-47
2022/05/01 07:05:22;;;;;;;18.23;10.70;;;;;;;10.59;65.59;94248.94;5051787;28;20415;-49
2022/05/01 07:07:50;;;;;;;17.02;10.63;;;;;;;11.60;61.60;94248.50;5050859;28;20051;-47
2022/05/01 07:10:19;;;;;;;17.52;11.57;;;;;;;13.31;56.76;94240.56;5050226;28;20044;-49
2022/05/01 07:12:46;;;;;;;15.82;11.27;;;;;;;16.00;50.59;94239.25;5050914;28;20067;-52
2022/05/01 07:15:13;;;;;;;14.77;11.07;;;;;;;16.04;47.39;94244.69;5051435;28;20514;-52
2022/05/01 07:17:40;;;;;;;14.57;11.00;;;;;;;12.66;54.32;94241.75;5051282;28;20044;-51
2022/05/01 07:20:08;;;;;;;17.50;11.68;;;;;;;10.54;61.72;94247.41;5050929;28;20053;-52
2022/05/01 07:22:35;;;;;;;16.95;12.13;;;;;;;10.16;63.05;94252.00;5051290;28;20040;-49
2022/05/01 07:25:03;;;;;;;16.35;11.38;;;;;;;10.00;64.01;94249.81;5050814;28;20051;-53
2022/05/01 07:27:30;;;;;;;17.90;11.73;;;;;;;9.57;66.47;94239.91;5051453;28;20053;-50
2022/05/01 07:29:56;;;;;;;15.73;10.97;;;;;;;9.60;66.20;94243.81;5050449;28;20102;-48
2022/05/01 07:32:24;;;;;;;19.02;11.57;;;;;;;9.51;66.87;94247.00;5051390;28;20490;-48
2022/05/01 07:34:51;;;;;;;18.35;12.00;;;;;;;9.77;65.65;94245.66;5050581;28;20045;-51
2022/05/01 07:37:20;;;;;;;18.77;11.82;;;;;;;9.73;66.16;94238.63;5051238;28;20045;-54
2022/05/01 07:39:47;;;;;;;18.58;11.75;;;;;;;13.54;57.52;94237.69;5050084;28;20048;-50
2022/05/01 07:42:14;;;;;;;16.40;10.90;;;;;;;17.42;47.88;94221.03;5050875;28;20059;-52
2022/05/01 07:44:41;;;;;;;14.68;11.07;;;;;;;19.64;39.93;94224.34;5040555;28;20313;-58
2022/05/01 07:47:08;;;;;;;13.65;11.30;;;;;;;20.87;38.40;94218.13;5030345;28;20068;-51
2022/05/01 07:49:34;;;;;;;16.05;12.75;;;;;;;15.40;48.25;94225.22;5029403;28;20059;-52
2022/05/01 07:52:01;;;;;;;14.10;11.20;;;;;;;19.45;39.20;94216.03;5029565;28;20392;-50
2022/05/01 07:54:28;;;;;;;14.00;10.90;;;;;;;19.49;39.16;94213.09;5032518;28;20063;-54
2022/05/01 07:56:55;;;;;;;16.83;13.10;;;;;;;19.54;38.11;94218.03;5028057;28;20386;-50
2022/05/01 07:59:21;;;;;;;13.25;10.95;;;;;;;22.04;35.71;94211.66;5030848;28;20045;-53
2022/05/01 08:01:48;;;;;;;14.40;11.70;;;;;;;21.46;34.34;94211.19;5012436;28;20064;-47
2022/05/01 08:04:30;;;;;;;13.73;11.73;;;;;;;22.87;32.60;94213.41;5031019;28;20051;-50
2022/05/01 08:07:03;;;;;;;15.00;11.63;;;;;;;21.64;32.13;94216.56;5031343;28;20053;-54
2022/05/01 08:09:30;;;;;;;15.18;12.02;;;;;;;17.41;40.73;94221.50;5049321;28;20049;-47
2022/05/01 08:11:58;;;;;;;12.00;9.80;;;;;;;22.21;33.15;94211.91;5049874;28;20102;-50
2022/05/01 08:14:25;;;;;;;11.32;9.60;;;;;;;24.25;29.46;94213.84;5047532;28;20110;-52
2022/05/01 08:16:52;;;;;;;11.60;9.95;;;;;;;19.42;36.49;94216.19;5035506;28;20153;-53
2022/05/01 08:22:05;;;;;;;14.35;10.82;;;;;;;18.82;37.88;94209.25;5030255;28;20482;-47
2022/05/01 08:24:34;;;;;;;14.77;11.52;;;;;;;19.61;37.16;94214.91;5030497;28;20042;-50
2022/05/01 08:27:05;;;;;;;10.30;8.98;;;;;;;22.50;32.43;94199.94;5029789;28;20052;-50
2022/05/01 08:29:39;;;;;;;10.15;9.00;;;;;;;21.68;31.91;94202.44;5044173;28;20045;-55
2022/05/01 08:32:07;;;;;;;11.97;9.33;;;;;;;18.63;37.34;94211.19;5049383;28;20043;-49
2022/05/01 08:34:33;;;;;;;11.95;9.77;;;;;;;17.74;39.94;94205.94;5049844;28;20040;-50
2022/05/01 08:37:00;;;;;;;14.98;9.93;;;;;;;15.67;44.71;94211.75;5047918;28;20045;-50
2022/05/01 08:39:27;;;;;;;12.73;9.00;;;;;;;15.17;46.17;94202.94;5049874;28;20366;-48
2022/05/01 08:41:54;;;;;;;12.38;9.70;;;;;;;14.57;48.52;94211.66;5046425;28;20053;-52
2022/05/01 08:44:37;;;;;;;15.87;11.00;;;;;;;11.96;55.15;94212.28;5042346;28;20045;-46
2022/05/01 08:47:18;;;;;;;15.82;10.52;;;;;;;12.05;55.33;94209.75;5029837;28;20049;-48
2022/05/01 08:49:46;;;;;;;13.32;9.30;;;;;;;12.82;52.40;94207.22;5029604;28;20041;-46
2022/05/01 08:52:15;;;;;;;15.77;9.75;;;;;;;13.20;51.96;94213.19;5041298;28;20051;-51
2022/05/01 08:54:44;;;;;;;13.13;9.38;;;;;;;16.18;44.65;94200.69;5032898;28;20053;-50
2022/05/01 08:57:12;;;;;;;12.23;8.43;;;;;;;16.57;43.53;94200.63;5029219;28;20373;-47
2022/05/01 08:59:40;;;;;;;12.05;8.20;;;;;;;17.42;41.00;94201.59;5030137;28;20033;-47
2022/05/01 09:02:10;;;;;;;14.55;9.50;;;;;;;15.46;45.59;94202.09;5029583;28;20049;-46
2022/05/01 09:04:37;;;;;;;15.68;11.00;;;;;;;11.96;54.51;94210.28;5029907;28;20045;-51
2022/05/01 09:07:04;;;;;;;14.02;10.40;;;;;;;12.51;53.42;94210.94;5031249;28;20049;-49
2022/05/01 09:09:31;;;;;;;13.23;9.47;;;;;;;13.76;49.43;94202.16;5048926;28;20267;-47
2022/05/01 09:14:43;;;;;;;13.13;9.05;;;;;;;17.54;40.36;94194.44;5048923;28;20049;-54
2022/05/01 09:17:19;;;;;;;24.20;14.98;;;;;;;15.07;45.23;94203.22;5058229;28;20394;-49
2022/05/01 09:19:48;;;;;;;13.05;9.80;;;;;;;15.08;46.39;94207.53;5068284;28;20048;-48
2022/05/01 09:22:18;;;;;;;14.23;10.40;;;;;;;12.26;52.84;94200.38;5068908;28;20698;-52
2022/05/01 09:24:52;;;;;;;13.63;10.30;;;;;;;11.53;54.85;94208.16;5068707;28;20051;-52
2022/05/01 09:27:23;;;;;;;13.80;10.00;;;;;;;11.59;56.32;94205.75;5070930;28;20117;-49
2022/05/01 09:29:50;;;;;;;13.13;9.27;;;;;;;13.29;51.69;94204.34;5055867;28;20047;-52
2022/05/01 09:32:35;;;;;;;16.73;10.60;;;;;;;12.11;54.72;94208.09;5053236;28;20051;-49
2022/05/01 09:35:03;;;;;;;14.37;9.23;;;;;;;13.70;50.19;94209.38;5052530;28;20051;-50
2022/05/01 09:37:30;;;;;;;13.55;9.30;;;;;;;12.83;51.59;94204.06;5053022;28;20043;-47
2022/05/01 09:39:56;;;;;;;13.63;9.23;;;;;;;13.94;49.27;94209.22;5052552;28;20071;-47
2022/05/01 09:42:25;;;;;;;12.35;8.50;;;;;;;15.41;47.10;94210.16;5053310;28;20121;-51
2022/05/01 09:45:11;;;;;;;12.27;9.05;;;;;;;15.35;46.28;94212.69;5051937;28;20053;-53
2022/05/01 09:47:43;;;;;;;11.27;8.20;;;;;;;15.48;45.00;94213.50;5052022;28;20152;-48
2022/05/01 09:50:12;;;;;;;13.73;9.07;;;;;;;15.47;44.59;94209.16;5050658;28;20802;-49
2022/05/01 09:52:56;;;;;;;14.48;9.60;;;;;;;15.56;44.42;94212.06;5052604;28;20033;-51
2022/05/01 09:55:24;;;;;;;12.07;8.60;;;;;;;15.53;43.94;94215.72;5051824;28;21734;-49
2022/05/01 09:58:06;;;;;;;13.05;9.30;;;;;;;15.74;43.75;94210.78;5052195;28;20040;-51
2022/05/01 10:00:38;;;;;;;12.77;9.10;;;;;;;16.33;43.22;94212.06;5039519;28;20402;-49
2022/05/01 10:03:21;;;;;;;12.52;9.27;;;;;;;15.53;43.91;94210.19;5030753;28;20045;-51
2022/05/01 10:05:49;;;;;;;12.88;9.27;;;;;;;16.50;42.02;94201.66;5032323;28;20053;-50
2022/05/01 10:08:18;;;;;;;12.82;8.68;;;;;;;16.48;41.83;94194.97;5044790;28;20036;-53
2022/05/01 10:10:47;;;;;;;11.00;8.43;;;;;;;20.08;36.60;94194.09;5051910;28;20057;-58
2022/05/01 10:13:15;;;;;;;10.17;7.93;;;;;;;21.21;33.43;94190.91;5032830;28;20626;-52
2022/05/01 10:16:07;;;;;;;9.55;6.90;;;;;;;22.53;31.10;94188.53;5031524;28;20060;-53
2022/05/01 10:18:36;;;;;;;11.13;8.00;;;;;;;21.84;30.86;94178.81;5032710;28;20045;-55
2022/05/01 10:21:04;;;;;;;10.85;8.75;;;;;;;18.13;37.32;94186.25;5030705;28;20111;-52
2022/05/01 10:23:32;;;;;;;10.43;8.10;;;;;;;17.23;38.56;94184.09;5031065;28;20063;-51
2022/05/01 10:26:24;;;;;;;9.80;7.93;;;;;;;17.12;39.19;94190.03;5030791;28;20045;-48
2022/05/01 10:29:37;;;;;;;11.40;8.10;;;;;;;15.13;42.83;94188.44;5040487;28;20045;-53
2022/05/01 10:32:25;;;;;;;10.05;7.68;;;;;;;16.32;40.78;94182.84;5042478;28;20070;-50
2022/05/01 10:35:23;;;;;;;11.27;7.68;;;;;;;17.41;38.24;94177.09;5029331;28;20615;-49
2022/05/01 10:38:06;;;;;;;10.20;7.47;;;;;;;17.78;38.41;94178.81;5029293;28;20048;-49
2022/05/01 10:40:39;;;;;;;10.80;7.73;;;;;;;17.41;37.69;94172.31;5029943;28;20041;-46
2022/05/01 10:43:29;;;;;;;10.43;7.65;;;;;;;16.30;38.99;94171.44;5030397;28;20049;-48
2022/05/01 10:46:00;;;;;;;12.07;7.80;;;;;;;16.47;40.18;94174.06;5029997;28;20052;-48
2022/05/01 10:48:36;;;;;;;10.13;7.38;;;;;;;17.42;38.56;94164.78;5030911;28;20047;-53
2022/05/01 10:51:27;;;;;;;10.27;7.78;;;;;;;17.57;37.93;94163.00;5030201;28;20053;-50
2022/05/01 10:54:15;;;;;;;11.20;8.00;;;;;;;17.16;39.24;94162.94;5030101;28;20098;-50
2022/05/01 10:57:05;;;;;;;10.05;7.50;;;;;;;17.88;37.84;94160.22;5030938;28;20444;-46
2022/05/01 10:59:42;;;;;;;12.13;7.85;;;;;;;17.63;38.73;94168.75;5029671;28;20658;-50
2022/05/01 11:02:46;;;;;;;10.82;7.72;;;;;;;17.21;39.52;94163.59;5029582;28;21411;-54
2022/05/01 11:05:44;;;;;;;11.77;7.30;;;;;;;16.82;39.84;94162.97;4987750;28;21355;-47
2022/05/01 11:08:24;;;;;;;11.03;7.50;;;;;;;16.92;39.93;94162.63;5048289;28;21769;-49
2022/05/01 11:10:56;;;;;;;11.48;7.63;;;;;;;17.15;39.07;94157.84;5049734;28;20047;-49
2022/05/01 11:13:33;;;;;;;11.70;8.05;;;;;;;16.57;40.11;94159.06;5050614;28;20044;-53
2022/05/01 11:16:00;;;;;;;10.98;7.95;;;;;;;15.29;42.89;94167.44;5049105;28;20045;-53
2022/05/01 11:18:48;;;;;;;12.20;8.30;;;;;;;15.59;42.49;94157.84;5050331;28;20049;-48
2022/05/01 11:21:37;;;;;;;10.87;8.07;;;;;;;15.27;43.17;94158.81;5007402;28;1121280;-50
2022/05/01 11:24:05;;;;;;;11.60;8.27;;;;;;;15.80;42.89;94150.91;5046726;28;20045;-49
2022/05/01 11:26:33;;;;;;;12.07;8.20;;;;;;;16.85;40.73;94151.78;5050807;28;20110;-52
2022/05/01 11:29:13;;;;;;;12.15;8.82;;;;;;;15.97;41.82;94148.78;5050186;28;20118;-47
2022/05/01 11:31:42;;;;;;;12.52;9.10;;;;;;;16.10;42.01;94143.25;5050991;28;20048;-46
2022/05/01 11:34:24;;;;;;;13.80;9.20;;;;;;;16.51;40.75;94142.22;5049993;28;20892;-46
2022/05/01 11:36:57;;;;;;;10.73;7.82;;;;;;;18.01;39.42;94143.47;5049039;28;20052;-46
2022/05/01 11:39:43;;;;;;;10.97;8.03;;;;;;;16.88;39.95;94134.25;5051016;28;20143;-48
2022/05/01 11:42:25;;;;;;;14.88;8.95;;;;;;;16.07;41.64;94139.34;5048699;28;20562;-46
2022/05/01 11:44:57;;;;;;;10.13;7.47;;;;;;;17.40;38.71;94133.94;5049949;28;20064;-48
2022/05/01 11:47:26;;;;;;;13.48;9.02;;;;;;;14.59;44.63;94136.66;5051004;28;20056;-54
2022/05/01 11:49:53;;;;;;;10.73;7.97;;;;;;;14.74;44.68;94150.84;5049390;28;20045;-47
2022/05/01 11:52:22;;;;;;;11.43;8.33;;;;;;;14.91;44.29;94143.25;5050418;28;20047;-49
2022/05/01 11:54:53;;;;;;;12.48;8.60;;;;;;;15.64;43.18;94137.16;5050152;28;20075;-52
2022/05/01 12:03:06;;;;;;;10.80;7.68;;;;;;;16.80;42.03;94137.69;5049871;28;20059;-51
2022/05/01 12:05:47;;;;;;;12.50;9.13;;;;;;;15.74;43.70;94133.31;5050756;28;20040;-46
2022/05/01 12:08:15;;;;;;;11.98;8.57;;;;;;;16.04;42.70;94126.41;5048844;28;20805;-49